Indian Creek Settlement, Indiana
Current Conditions -  °F | °C
As of 7:35 PM on Sunday 23 Nov 2014 (Local Time) from KDCY Reporting Station
Moderate Rain Moderate Rain  
Wind Chill: 56°   Ceiling: 800
Heat Index: 56°   Visibility: 5mi
Dew Point: 56°   Wind: 20mph
Humidity: 100%   Direction: 170°S
Pressure: 29.23"   Gusts: 25mph
Location:  38.7736°N, 87.3306°W
Report Text: KDCY 240135Z AUTO 17017G22KT 5SM RA OVC008 13/13 A2923 RMK AO2 P0005 T01320132
Loading
Personal Weather Stations






























Interactive Weather Map New forecast layout! Learn more

10-Day Weather Forecast

Advertisements
Track Severe Weather on mobile